createdAt,value
2018-05-15T00:02:12.219Z,14.70
2018-05-15T00:04:38.507Z,14.60
2018-05-15T00:07:05.412Z,14.50
2018-05-15T00:09:31.618Z,14.50
2018-05-15T09:20:02.421Z,21.80
2018-05-15T09:22:28.628Z,21.70
2018-05-15T09:24:56.131Z,21.80
2018-05-15T09:27:22.539Z,21.90
2018-05-15T09:29:48.674Z,22.00
2018-05-15T09:32:14.790Z,22.10
2018-05-15T09:34:42.171Z,22.20
2018-05-15T09:37:08.470Z,22.20
2018-05-15T09:39:34.995Z,22.30
2018-05-15T09:42:01.234Z,22.30
2018-05-15T09:44:27.443Z,22.40
2018-05-15T09:46:53.784Z,22.50
2018-05-15T09:49:20.948Z,22.50
2018-05-15T09:51:47.103Z,22.50
2018-05-15T09:54:13.550Z,22.60
2018-05-15T09:56:39.707Z,22.60
2018-05-15T09:59:06.993Z,22.60
2018-05-15T10:01:35.879Z,22.50
2018-05-15T10:04:02.028Z,22.50
2018-05-15T10:06:28.262Z,22.60
2018-05-15T10:08:54.541Z,22.60
2018-05-15T10:11:20.746Z,22.70
2018-05-15T10:13:47.673Z,23.10
2018-05-15T10:16:16.327Z,23.00
2018-05-15T10:18:42.640Z,23.10
2018-05-15T10:21:08.803Z,23.10
2018-05-15T10:23:35.246Z,23.10
2018-05-15T10:26:01.514Z,23.10
2018-05-15T10:28:28.468Z,22.90
2018-05-15T10:30:54.635Z,22.90
2018-05-15T10:33:20.777Z,22.80
2018-05-15T10:35:47.243Z,22.80
2018-05-15T10:38:14.519Z,23.10
2018-05-15T10:40:41.382Z,23.00
2018-05-15T10:43:07.596Z,23.00
2018-05-15T10:45:33.987Z,23.10
2018-05-15T10:48:00.873Z,23.30
2018-05-15T10:50:26.983Z,23.30
2018-05-15T10:52:53.100Z,23.50
2018-05-15T10:55:19.977Z,23.40
2018-05-15T10:57:46.106Z,23.40
2018-05-15T11:00:12.411Z,23.30
2018-05-15T11:02:48.815Z,23.10
2018-05-15T11:05:15.452Z,23.20
2018-05-15T11:35:18.878Z,24.30
2018-05-15T11:37:45.039Z,24.30
2018-05-15T11:40:11.255Z,24.20
2018-05-15T11:42:37.456Z,24.20
2018-05-15T11:45:03.574Z,24.10
2018-05-15T11:47:29.810Z,24.30
2018-05-15T11:49:56.629Z,24.60
2018-05-15T11:52:22.700Z,24.80
2018-05-15T11:54:48.281Z,24.70
2018-05-15T11:57:14.421Z,25.00
2018-05-15T11:59:40.594Z,25.20
2018-05-15T12:02:06.791Z,25.50
2018-05-15T12:04:32.956Z,25.30
2018-05-15T12:06:59.122Z,25.00
